Time;durP1;ratioP1;P1;durP2;ratioP2;P2;SDS_P1;SDS_P2;PMS_P1;PMS_P2;Temp;Humidity;BMP_temperature;BMP_pressure;BME280_temperature;BME280_humidity;BME280_pressure;Samples;Min_cycle;Max_cycle;Signal;HPM_P1;HPM_P2
2023/02/13 10:18:22;;;;;;;28.67;12.98;;;;;;;8.39;82.54;103205.16;5106534;27;20411;-55
2023/02/13 10:20:53;;;;;;;25.48;12.40;;;;;;;8.54;81.55;103200.88;5088187;28;20047;-54
2023/02/13 10:23:28;;;;;;;30.88;14.25;;;;;;;8.65;81.03;103203.81;5101496;28;20051;-54
2023/02/13 10:26:06;;;;;;;25.08;13.43;;;;;;;8.72;81.23;103210.47;5086175;28;20044;-54
2023/02/13 10:28:39;;;;;;;34.63;13.88;;;;;;;8.76;81.08;103208.53;5078887;28;20037;-55
2023/02/13 10:31:14;;;;;;;27.77;13.32;;;;;;;8.89;80.36;103214.00;5086665;28;20047;-54
2023/02/13 10:33:49;;;;;;;28.40;13.48;;;;;;;8.92;79.95;103205.91;5085080;28;20044;-54
2023/02/13 10:36:19;;;;;;;26.77;13.90;;;;;;;8.96;79.74;103200.34;5091022;28;20093;-53
2023/02/13 10:38:57;;;;;;;29.15;14.60;;;;;;;9.18;79.25;103201.84;5089882;28;20102;-53
2023/02/13 10:41:56;;;;;;;30.27;13.98;;;;;;;9.29;79.08;103203.88;5085401;28;20477;-54
2023/02/13 10:44:48;;;;;;;26.67;14.00;;;;;;;9.40;78.54;103206.78;5080095;28;20143;-52
2023/02/13 10:47:33;;;;;;;29.35;13.48;;;;;;;9.44;78.03;103207.47;5084927;28;20050;-53
2023/02/13 10:56:07;;;;;;;31.58;13.43;;;;;;;9.82;76.07;103205.28;5067751;28;20385;-53
2023/02/13 10:59:14;;;;;;;26.52;13.73;;;;;;;9.89;76.11;103209.28;5026770;28;20037;-54
2023/02/13 11:01:50;;;;;;;26.45;13.65;;;;;;;10.08;75.51;103203.78;5062296;28;20617;-55
2023/02/13 11:04:18;;;;;;;26.90;13.10;;;;;;;10.24;74.15;103197.53;5068141;28;20516;-55
2023/02/13 11:07:02;;;;;;;28.60;13.43;;;;;;;10.34;74.48;103188.97;5045298;28;20033;-55
2023/02/13 11:09:37;;;;;;;28.55;13.93;;;;;;;10.65;72.88;103195.06;5051619;28;20495;-54
2023/02/13 11:12:28;;;;;;;27.88;12.88;;;;;;;10.99;70.35;103192.09;5056320;28;20394;-54
2023/02/13 11:14:58;;;;;;;26.58;12.85;;;;;;;11.44;67.45;103185.66;5045869;28;20036;-55
2023/02/13 11:17:29;;;;;;;26.67;12.63;;;;;;;13.12;64.06;103192.78;5063427;28;20061;-55
2023/02/13 11:19:58;;;;;;;22.23;12.25;;;;;;;16.42;51.68;103183.63;5063751;28;20051;-55
2023/02/13 11:22:31;;;;;;;26.23;11.80;;;;;;;18.42;44.28;103186.09;5060145;28;20057;-55
2023/02/13 11:25:05;;;;;;;23.95;11.88;;;;;;;20.31;40.09;103179.94;5033168;28;20110;-54
2023/02/13 11:27:35;;;;;;;23.27;12.43;;;;;;;22.08;36.09;103185.25;5062563;28;20049;-54
2023/02/13 11:30:25;;;;;;;22.17;11.90;;;;;;;22.48;34.77;103185.34;5052392;28;20047;-55
2023/02/13 11:32:59;;;;;;;20.80;11.70;;;;;;;23.73;32.08;103193.44;5061982;28;20057;-55
2023/02/13 11:35:32;;;;;;;26.40;12.52;;;;;;;24.23;30.57;103188.38;5056249;28;20051;-56
2023/02/13 11:38:21;;;;;;;24.80;12.70;;;;;;;24.95;30.02;103184.97;5049670;28;20071;-55
2023/02/13 11:41:02;;;;;;;25.70;12.38;;;;;;;25.68;28.30;103184.88;5054334;28;20087;-55
2023/02/13 11:43:35;;;;;;;21.90;12.88;;;;;;;24.84;28.87;103185.47;5064335;28;20772;-56
2023/02/13 11:46:08;;;;;;;25.15;13.13;;;;;;;25.96;27.70;103184.94;5050114;28;20900;-55
2023/02/13 11:48:35;;;;;;;23.67;13.57;;;;;;;26.19;27.13;103181.94;5048364;28;20048;-56
2023/02/13 11:51:03;;;;;;;28.48;13.38;;;;;;;25.43;28.51;103179.00;5060751;28;20044;-55
2023/02/13 11:53:35;;;;;;;25.17;13.63;;;;;;;26.12;26.77;103177.50;5054534;28;20080;-49
2023/02/13 11:56:09;;;;;;;82.63;46.17;;;;;;;26.71;26.45;103181.63;5049015;28;20112;-50
2023/02/13 11:58:37;;;;;;;26.95;15.35;;;;;;;26.91;25.25;103173.50;5071736;28;20071;-49
2023/02/13 12:06:38;;;;;;;22.45;13.80;;;;;;;26.81;26.04;103161.13;5046824;28;20393;-54
2023/02/13 12:09:14;;;;;;;25.48;13.38;;;;;;;25.50;27.44;103160.06;5019472;28;20045;-55
2023/02/13 12:11:47;;;;;;;24.13;13.20;;;;;;;25.52;26.85;103150.66;5021538;28;20951;-54
2023/02/13 12:14:21;;;;;;;26.05;14.07;;;;;;;26.51;26.02;103152.41;5027811;28;20084;-55
2023/02/13 12:17:07;;;;;;;25.27;13.13;;;;;;;26.22;26.26;103145.34;5023903;28;20048;-54
2023/02/13 12:19:41;;;;;;;27.70;13.55;;;;;;;24.18;29.10;103134.72;5044657;28;20057;-55
2023/02/13 12:22:48;;;;;;;26.42;13.95;;;;;;;22.29;30.80;103136.06;5006706;28;20137;-51
2023/02/13 12:25:42;;;;;;;23.80;10.73;;;;;;;20.64;33.45;103124.34;5026619;28;20454;-57
2023/02/13 12:28:13;;;;;;;26.48;12.65;;;;;;;20.65;34.51;103126.06;5020589;28;20499;-54
2023/02/13 12:31:13;;;;;;;29.17;11.65;;;;;;;20.17;35.86;103118.56;5001863;28;20042;-54
2023/02/13 12:34:19;;;;;;;24.25;12.77;;;;;;;19.97;35.81;103115.25;5022962;28;20081;-55
2023/02/13 12:37:13;;;;;;;21.75;11.57;;;;;;;19.28;36.52;103115.00;5029583;28;21779;-55
2023/02/13 12:39:52;;;;;;;22.45;12.27;;;;;;;19.47;36.89;103112.16;5029248;28;20041;-54
2023/02/13 12:42:51;;;;;;;25.13;12.45;;;;;;;19.32;37.05;103116.41;5035235;28;20124;-54
2023/02/13 12:45:33;;;;;;;20.95;11.57;;;;;;;21.73;33.21;103117.06;5002994;28;20050;-55
2023/02/13 12:48:40;;;;;;;22.40;11.38;;;;;;;22.83;30.67;103115.53;5006022;28;20038;-54
2023/02/13 12:51:28;;;;;;;21.42;11.70;;;;;;;22.87;31.80;103111.47;5043267;28;20526;-54
2023/02/13 12:57:28;;;;;;;22.52;11.43;;;;;;;24.83;28.00;103108.66;5059828;28;20473;-55
2023/02/13 13:00:13;;;;;;;22.13;11.40;;;;;;;25.00;27.66;103111.13;5048289;28;20049;-55
2023/02/13 13:02:50;;;;;;;22.58;11.35;;;;;;;24.76;28.41;103113.16;5035171;28;20175;-54
2023/02/13 13:05:31;;;;;;;19.20;10.93;;;;;;;25.31;27.76;103107.25;5060671;28;20561;-54
2023/02/13 13:08:35;;;;;;;22.15;11.50;;;;;;;24.39;28.71;103101.41;5057958;28;20399;-55
2023/02/13 13:11:25;;;;;;;20.33;10.70;;;;;;;24.04;28.04;103103.88;5052176;28;20045;-55
2023/02/13 13:14:18;;;;;;;26.13;11.15;;;;;;;24.87;28.31;103092.81;5060364;28;20044;-55
2023/02/13 13:16:58;;;;;;;20.40;10.52;;;;;;;24.98;27.76;103081.44;5046586;28;20760;-54
2023/02/13 13:22:34;;;;;;;21.17;10.02;;;;;;;25.18;27.83;103081.63;5093624;28;20411;-53
2023/02/13 13:28:03;;;;;;;22.75;9.82;;;;;;;25.44;27.20;103085.63;5051626;28;20400;-52
2023/02/13 13:30:34;;;;;;;18.48;9.18;;;;;;;24.64;27.35;103079.41;5035795;28;20068;-53
2023/02/13 13:33:12;;;;;;;26.02;13.23;;;;;;;24.57;28.14;103079.31;5042521;28;20060;-53
2023/02/13 13:35:43;;;;;;;20.55;9.70;;;;;;;24.58;27.63;103072.03;5048380;28;20045;-53
2023/02/13 13:38:18;;;;;;;18.42;9.80;;;;;;;24.51;27.56;103072.75;5045248;28;20076;-53
2023/02/13 13:40:58;;;;;;;18.10;9.27;;;;;;;24.96;27.14;103066.34;5036137;28;20094;-53
2023/02/13 13:43:51;;;;;;;18.23;9.77;;;;;;;25.12;26.82;103067.97;5032376;28;20045;-53
2023/02/13 13:46:56;;;;;;;18.90;9.18;;;;;;;25.43;26.11;103067.63;5038089;28;20098;-55
2023/02/13 13:49:35;;;;;;;18.40;9.15;;;;;;;25.07;26.96;103063.16;5020119;28;20049;-54
2023/02/13 13:52:24;;;;;;;16.33;8.40;;;;;;;25.24;26.51;103055.59;5022207;28;20140;-54
2023/02/13 13:54:51;;;;;;;17.77;9.02;;;;;;;25.46;26.46;103057.22;5037627;28;20694;-55
2023/02/13 13:57:21;;;;;;;21.73;8.93;;;;;;;25.37;26.27;103049.41;5044653;28;20049;-55
2023/02/13 14:02:36;;;;;;;21.77;8.73;;;;;;;25.35;26.63;103046.06;5078351;27;20407;-57
2023/02/13 14:05:26;;;;;;;17.98;9.15;;;;;;;25.30;26.30;103046.63;5085714;28;20058;-55
2023/02/13 14:07:57;;;;;;;19.00;8.77;;;;;;;25.45;26.63;103047.41;5077873;28;20048;-55
2023/02/13 14:13:01;;;;;;;16.52;8.43;;;;;;;25.03;27.06;103037.41;5101061;27;20771;-56
2023/02/13 14:20:54;;;;;;;14.57;7.50;;;;;;;23.55;28.64;103032.03;5095788;27;20866;-55
2023/02/13 14:23:52;;;;;;;15.85;7.82;;;;;;;23.97;28.55;103029.75;5050432;28;20050;-56
2023/02/13 14:26:28;;;;;;;18.75;7.85;;;;;;;23.61;28.30;103025.03;5049851;28;20053;-55
2023/02/13 14:31:38;;;;;;;15.95;8.07;;;;;;;22.04;30.39;103029.88;5071790;27;20048;-54
2023/02/13 14:34:17;;;;;;;16.00;7.40;;;;;;;21.08;32.12;103024.31;5057973;28;20132;-54
2023/02/13 14:36:47;;;;;;;17.25;7.60;;;;;;;19.62;34.95;103007.44;5045545;28;20056;-56
2023/02/13 14:39:27;;;;;;;14.55;7.43;;;;;;;18.61;37.58;103016.69;5063436;28;20398;-55
2023/02/13 14:41:58;;;;;;;20.90;7.25;;;;;;;17.62;38.97;103003.84;5059310;28;20452;-54
2023/02/13 14:44:32;;;;;;;14.57;6.90;;;;;;;17.32;40.24;103004.94;5063622;28;20437;-54
2023/02/13 14:47:03;;;;;;;14.52;7.13;;;;;;;16.81;41.12;103006.91;5049421;28;20501;-54
2023/02/13 14:49:35;;;;;;;14.82;6.40;;;;;;;16.39;41.98;103008.94;5065301;28;20045;-54
2023/02/13 14:52:06;;;;;;;15.23;7.28;;;;;;;16.15;43.79;102999.41;5041495;28;20041;-53
2023/02/13 14:54:37;;;;;;;15.02;6.88;;;;;;;15.86;43.97;103000.19;5060698;28;20041;-52
2023/02/13 14:57:13;;;;;;;17.85;6.93;;;;;;;15.48;45.03;102993.59;5044217;28;20052;-53
2023/02/13 14:59:45;;;;;;;14.57;6.50;;;;;;;15.39;45.49;102996.19;5066112;28;20059;-55
2023/02/13 15:02:22;;;;;;;15.02;5.88;;;;;;;15.18;45.31;103002.41;5020695;28;20048;-52
2023/02/13 15:05:00;;;;;;;14.50;5.70;;;;;;;15.11;45.70;102990.53;5067698;28;20137;-53
2023/02/13 15:07:34;;;;;;;13.52;5.57;;;;;;;14.94;46.66;102990.13;5061694;28;20045;-53
2023/02/13 15:10:13;;;;;;;21.50;6.65;;;;;;;14.74;46.79;102985.59;5066543;28;20029;-55
2023/02/13 15:12:39;;;;;;;13.20;5.50;;;;;;;14.64;47.49;102985.47;5042911;28;20489;-53
2023/02/13 15:15:24;;;;;;;15.98;5.90;;;;;;;14.61;46.82;102979.53;5058773;28;20041;-54
2023/02/13 15:17:59;;;;;;;13.30;5.35;;;;;;;14.43;47.55;102982.72;5036547;28;20545;-54
2023/02/13 15:20:29;;;;;;;13.23;5.30;;;;;;;14.37;47.56;102976.06;5043017;28;20048;-54
2023/02/13 15:22:57;;;;;;;16.83;5.35;;;;;;;14.27;47.85;102967.09;5057909;28;20452;-53
2023/02/13 15:25:30;;;;;;;13.27;5.78;;;;;;;14.25;48.17;102982.41;5052346;28;20056;-53
2023/02/13 15:27:58;;;;;;;12.10;5.78;;;;;;;14.02;49.26;102977.09;5058600;28;20037;-54
2023/02/13 15:30:29;;;;;;;16.27;5.28;;;;;;;13.96;49.79;102974.06;5041263;28;20129;-54
2023/02/13 15:32:59;;;;;;;13.85;5.43;;;;;;;13.85;50.28;102976.75;5052581;28;20052;-54
2023/02/13 15:35:30;;;;;;;12.55;5.32;;;;;;;13.84;50.56;102970.53;5038836;28;20076;-54
2023/02/13 15:38:17;;;;;;;17.73;6.30;;;;;;;13.92;49.83;102977.94;5065594;28;20139;-54
2023/02/13 15:40:43;;;;;;;10.68;4.90;;;;;;;13.86;51.14;102971.28;5055213;28;20048;-54
2023/02/13 15:46:28;;;;;;;13.30;4.70;;;;;;;13.77;50.77;102969.31;5117999;27;20914;-54
2023/02/13 15:48:58;;;;;;;10.68;4.97;;;;;;;13.77;52.08;102966.66;5086611;28;20047;-54
2023/02/13 15:51:29;;;;;;;12.52;4.80;;;;;;;13.72;52.45;102966.19;5103767;28;20389;-53
2023/02/13 15:53:59;;;;;;;11.67;4.03;;;;;;;13.59;52.24;102969.81;5099629;28;20032;-53
2023/02/13 15:56:27;;;;;;;13.85;4.47;;;;;;;13.56;52.25;102970.03;5079531;28;20509;-53
2023/02/13 15:58:55;;;;;;;12.45;4.50;;;;;;;13.54;52.88;102968.47;5095833;28;20075;-53
2023/02/13 16:01:22;;;;;;;11.13;4.63;;;;;;;13.37;52.82;102973.28;5068521;28;20401;-53
2023/02/13 16:04:03;;;;;;;13.82;4.70;;;;;;;13.34;52.53;102965.53;5059805;28;20063;-53
2023/02/13 16:06:32;;;;;;;13.07;4.15;;;;;;;13.28;52.17;102967.75;5102605;28;20558;-54
2023/02/13 16:08:59;;;;;;;12.20;4.60;;;;;;;13.15;53.59;102960.72;5100114;28;20523;-53
2023/02/13 16:11:36;;;;;;;10.77;4.07;;;;;;;13.10;53.56;102964.69;5077158;28;20113;-52
2023/02/13 16:14:23;;;;;;;12.75;4.35;;;;;;;13.13;54.69;102965.31;5103115;28;20051;-52
2023/02/13 16:16:55;;;;;;;12.45;4.50;;;;;;;13.07;55.03;102952.47;5079499;28;20039;-54
2023/02/13 16:19:25;;;;;;;11.60;4.90;;;;;;;12.99;55.39;102954.88;5102649;28;20130;-53
2023/02/13 16:21:54;;;;;;;14.50;4.57;;;;;;;12.94;55.67;102957.88;5092703;28;20035;-54
2023/02/13 16:24:23;;;;;;;13.82;4.75;;;;;;;12.89;55.78;102957.34;5101065;28;20051;-53
2023/02/13 16:26:50;;;;;;;14.65;5.22;;;;;;;12.86;55.75;102955.78;5099662;28;20044;-52
2023/02/13 16:29:21;;;;;;;19.55;5.50;;;;;;;12.78;56.75;102952.84;5071394;28;20086;-53
2023/02/13 16:31:49;;;;;;;15.98;5.00;;;;;;;12.72;56.43;102955.97;5091111;28;20512;-53
2023/02/13 16:34:25;;;;;;;15.00;5.20;;;;;;;12.68;56.78;102955.34;5092007;28;20109;-54
2023/02/13 16:36:54;;;;;;;16.35;4.70;;;;;;;12.64;56.86;102955.66;5059861;28;20040;-52
2023/02/13 16:39:27;;;;;;;22.02;5.30;;;;;;;12.48;56.75;102951.50;5105100;28;20041;-54
2023/02/13 16:41:56;;;;;;;14.20;5.18;;;;;;;12.45;57.81;102954.38;5073987;28;20063;-51
2023/02/13 16:44:30;;;;;;;18.10;5.45;;;;;;;12.36;58.43;102955.03;5085828;28;20098;-54
2023/02/13 16:47:02;;;;;;;12.07;5.13;;;;;;;12.19;59.01;102950.94;5092468;28;20702;-53
2023/02/13 16:49:32;;;;;;;12.30;5.05;;;;;;;12.08;60.25;102953.53;5074119;28;20044;-54
2023/02/13 16:52:07;;;;;;;12.85;5.00;;;;;;;12.00;60.16;102948.75;5084482;28;20054;-53
2023/02/13 16:54:37;;;;;;;10.70;4.90;;;;;;;11.93;60.46;102950.16;5068006;28;20036;-53
2023/02/13 16:57:18;;;;;;;11.68;5.05;;;;;;;11.87;60.33;102953.22;5049755;28;20564;-53
2023/02/13 17:02:26;;;;;;;15.30;5.18;;;;;;;11.77;60.19;102961.00;5090236;27;20125;-52
2023/02/13 17:05:13;;;;;;;21.38;5.63;;;;;;;11.69;60.99;102968.66;5118652;28;20122;-53
2023/02/13 17:07:42;;;;;;;16.25;6.35;;;;;;;11.59;60.48;102962.25;5096416;27;20044;-52
2023/02/13 17:10:20;;;;;;;14.07;5.60;;;;;;;11.57;61.41;102965.06;5116755;28;20092;-54
2023/02/13 17:12:49;;;;;;;12.20;4.72;;;;;;;11.58;61.28;102976.53;5101722;28;20047;-54
2023/02/13 17:15:20;;;;;;;12.43;4.32;;;;;;;11.54;60.56;102978.53;5097945;28;20112;-53
2023/02/13 17:17:47;;;;;;;9.87;4.27;;;;;;;11.56;60.37;102978.44;5108861;28;20474;-53
2023/02/13 17:20:16;;;;;;;10.02;4.45;;;;;;;11.55;60.17;102982.03;5127927;27;20186;-54
2023/02/13 17:22:46;;;;;;;12.05;4.22;;;;;;;11.51;60.17;102981.41;5081929;28;20122;-54
2023/02/13 17:27:56;;;;;;;9.20;3.88;;;;;;;11.33;58.48;102994.13;5117777;27;20376;-53
2023/02/13 17:30:26;;;;;;;8.85;3.28;;;;;;;11.42;60.29;102993.50;5103163;27;20047;-53
2023/02/13 17:32:58;;;;;;;11.00;3.20;;;;;;;11.39;58.58;103000.84;5107748;27;25433;-52
2023/02/13 17:35:25;;;;;;;;;;;;;;;11.36;58.72;103007.22;5126207;27;20119;-53
2023/02/13 17:37:52;;;;;;;14.02;3.50;;;;;;;11.32;59.03;103006.59;5099460;28;19973;-53
2023/02/13 17:40:21;;;;;;;13.50;3.95;;;;;;;11.33;58.95;103002.13;5115559;28;20093;-54
2023/02/13 17:42:51;;;;;;;8.20;3.35;;;;;;;11.34;59.37;103001.16;5102338;28;20151;-54
2023/02/13 17:45:21;;;;;;;15.45;3.97;;;;;;;11.30;58.12;103005.84;5123450;27;20051;-54
2023/02/13 17:47:48;;;;;;;8.90;3.63;;;;;;;11.27;58.86;103002.53;5107817;27;20100;-54
2023/02/13 17:50:16;;;;;;;12.52;4.10;;;;;;;11.18;59.02;102997.84;5117224;28;20055;-55
2023/02/13 17:52:44;;;;;;;12.80;3.85;;;;;;;11.16;59.96;103002.41;5128100;27;20055;-55
2023/02/13 17:55:19;;;;;;;11.68;3.97;;;;;;;11.10;59.63;103001.88;5092726;27;20093;-56
2023/02/13 17:57:47;;;;;;;13.80;3.88;;;;;;;10.98;59.67;102994.72;5116792;28;20052;-55
2023/02/13 18:00:15;;;;;;;11.18;4.10;;;;;;;10.95;60.20;102998.44;5101823;28;20043;-54
2023/02/13 18:02:42;;;;;;;14.75;5.55;;;;;;;10.89;61.15;102992.66;5103720;28;20040;-53
2023/02/13 18:05:09;;;;;;;12.00;4.63;;;;;;;10.79;61.13;103003.03;5089481;28;20048;-55
2023/02/13 18:07:38;;;;;;;10.90;4.72;;;;;;;10.76;61.59;102997.94;5089309;28;20426;-54
2023/02/13 18:10:07;;;;;;;14.32;5.43;;;;;;;10.61;62.56;103002.44;5089893;28;20507;-54
2023/02/13 18:12:34;;;;;;;13.70;4.32;;;;;;;10.57;61.90;102993.81;5071908;28;20040;-54
2023/02/13 18:15:00;;;;;;;10.38;4.22;;;;;;;10.54;62.49;102991.34;5079148;28;20074;-54
2023/02/13 18:17:27;;;;;;;16.20;4.68;;;;;;;10.51;62.83;102991.56;5089383;28;20131;-53
2023/02/13 18:19:54;;;;;;;19.98;6.90;;;;;;;10.54;63.15;102998.47;5096869;28;20040;-54
2023/02/13 18:22:21;;;;;;;11.48;4.55;;;;;;;10.48;62.18;102999.72;5110158;28;20071;-53
2023/02/13 18:24:48;;;;;;;14.93;4.50;;;;;;;10.50;61.87;102996.97;5110008;28;20135;-53
2023/02/13 18:27:15;;;;;;;14.38;4.82;;;;;;;10.52;61.53;102992.41;5109449;28;20044;-54
2023/02/13 18:29:42;;;;;;;14.48;4.55;;;;;;;10.44;61.32;102990.25;5108903;28;20052;-54
2023/02/13 18:32:10;;;;;;;13.07;4.35;;;;;;;10.48;61.64;102986.44;5107726;28;20050;-53
2023/02/13 18:34:38;;;;;;;13.90;4.70;;;;;;;10.48;61.69;102997.06;5091709;28;20448;-55
2023/02/13 18:37:05;;;;;;;12.23;4.30;;;;;;;10.49;60.71;102996.09;5109117;28;20047;-54
2023/02/13 18:39:33;;;;;;;13.20;4.60;;;;;;;10.50;61.81;102987.19;5095775;28;20093;-54
2023/02/13 18:42:01;;;;;;;19.52;4.47;;;;;;;10.42;61.99;102988.63;5094628;28;20043;-54
2023/02/13 18:44:27;;;;;;;16.00;4.70;;;;;;;10.35;60.99;102990.81;5096109;28;20043;-54
2023/02/13 18:46:55;;;;;;;11.73;4.65;;;;;;;10.24;62.34;102990.63;5094802;28;20040;-53
2023/02/13 18:49:21;;;;;;;10.05;4.47;;;;;;;10.21;61.64;102994.34;5095958;28;20044;-54
2023/02/13 18:51:49;;;;;;;10.30;4.50;;;;;;;10.23;62.28;102995.09;5095783;28;20562;-55
2023/02/13 18:54:16;;;;;;;12.02;4.40;;;;;;;10.27;61.98;102991.28;5096068;28;20055;-55
2023/02/13 18:56:44;;;;;;;10.55;4.47;;;;;;;10.15;62.24;102995.56;5095935;28;20048;-55
2023/02/13 18:59:11;;;;;;;12.57;4.43;;;;;;;10.20;62.41;103000.56;5078787;28;20040;-54
2023/02/13 19:01:38;;;;;;;15.20;5.25;;;;;;;10.19;62.57;102994.44;5094807;28;20036;-54
2023/02/13 19:04:05;;;;;;;20.38;5.65;;;;;;;10.17;62.69;102993.69;5094922;28;20068;-54
2023/02/13 19:06:33;;;;;;;11.45;5.32;;;;;;;10.11;63.50;102991.38;5094504;28;20055;-54
2023/02/13 19:08:59;;;;;;;15.50;5.30;;;;;;;10.07;63.92;102989.88;5094197;28;20083;-54
2023/02/13 19:11:26;;;;;;;11.88;4.85;;;;;;;10.01;63.98;102998.22;5095300;28;20048;-54
2023/02/13 19:13:55;;;;;;;14.60;5.40;;;;;;;9.94;63.65;102994.25;5095553;28;20036;-52
2023/02/13 19:16:23;;;;;;;13.70;5.47;;;;;;;9.91;64.15;102995.28;5095380;28;20481;-54
2023/02/13 19:18:52;;;;;;;13.70;5.60;;;;;;;9.89;64.29;102986.56;5095504;28;20040;-53
2023/02/13 19:21:22;;;;;;;12.85;5.22;;;;;;;9.86;64.39;102989.44;5094823;28;20048;-54
2023/02/13 19:23:49;;;;;;;16.38;6.25;;;;;;;9.79;64.76;102991.59;5095417;28;20123;-54
2023/02/13 19:26:20;;;;;;;13.43;6.28;;;;;;;9.84;64.88;102990.47;5094883;28;20097;-53
2023/02/13 19:28:48;;;;;;;18.27;6.22;;;;;;;9.79;64.93;102996.06;5095044;28;20135;-54
2023/02/13 19:31:19;;;;;;;17.63;6.35;;;;;;;9.69;65.88;102994.91;5095095;28;20052;-55
2023/02/13 19:33:47;;;;;;;23.35;6.63;;;;;;;9.69;66.02;103002.84;5095522;28;20127;-54
2023/02/13 19:36:17;;;;;;;16.15;6.82;;;;;;;9.71;66.29;102993.84;5095215;28;20097;-54
2023/02/13 19:38:46;;;;;;;17.20;6.63;;;;;;;9.70;66.44;102991.31;5094799;28;20460;-54
2023/02/13 19:41:16;;;;;;;18.48;7.07;;;;;;;9.69;66.84;102997.56;5081797;28;20078;-52
2023/02/13 19:43:49;;;;;;;18.00;7.35;;;;;;;9.60;67.12;103005.13;5094071;28;20048;-53
2023/02/13 19:46:19;;;;;;;18.27;7.30;;;;;;;9.59;67.42;103005.22;5094706;28;20201;-53
2023/02/13 19:48:46;;;;;;;19.38;7.30;;;;;;;9.59;67.77;103005.22;5093262;28;20084;-54
2023/02/13 19:51:16;;;;;;;19.00;9.10;;;;;;;9.52;67.45;103006.53;5094399;28;20048;-53
2023/02/13 19:53:44;;;;;;;22.40;9.35;;;;;;;9.51;67.84;103012.75;5078049;28;20408;-54
2023/02/13 19:56:11;;;;;;;20.10;9.00;;;;;;;9.46;68.24;103013.06;5095061;28;20051;-53
2023/02/13 19:58:39;;;;;;;19.45;8.73;;;;;;;9.31;68.79;103016.59;5089534;28;20055;-53
2023/02/13 20:01:09;;;;;;;20.35;10.02;;;;;;;9.22;69.38;103013.56;5093986;28;20040;-54
2023/02/13 20:03:36;;;;;;;19.50;9.75;;;;;;;9.23;69.62;103006.44;5093409;28;20393;-53
2023/02/13 20:06:07;;;;;;;26.38;9.77;;;;;;;9.23;69.93;103004.66;5094876;28;20044;-54
2023/02/13 20:08:34;;;;;;;23.25;9.40;;;;;;;9.21;69.57;103011.00;5084655;28;20058;-53
2023/02/13 20:11:00;;;;;;;24.70;10.15;;;;;;;9.17;70.02;103005.03;5094593;28;20044;-54
2023/02/13 20:13:28;;;;;;;19.45;9.70;;;;;;;9.15;70.27;103012.19;5094252;28;20043;-53
2023/02/13 20:15:54;;;;;;;23.55;9.55;;;;;;;9.10;70.33;103011.63;5094278;28;20044;-54
2023/02/13 20:18:21;;;;;;;21.25;10.23;;;;;;;9.13;70.87;103007.91;5093861;28;20119;-53
2023/02/13 20:20:48;;;;;;;32.72;15.95;;;;;;;9.05;70.78;103008.38;5094041;28;20052;-54
2023/02/13 20:23:16;;;;;;;25.83;11.23;;;;;;;8.99;71.19;103006.94;5093960;28;20051;-53
2023/02/13 20:25:43;;;;;;;23.90;10.98;;;;;;;8.96;71.28;103006.25;5094196;28;20074;-53
2023/02/13 20:28:10;;;;;;;21.35;10.23;;;;;;;8.86;71.67;103019.19;5094065;28;20093;-53
2023/02/13 20:30:40;;;;;;;25.38;9.95;;;;;;;8.83;72.12;103008.75;5094024;28;20047;-53
2023/02/13 20:33:08;;;;;;;24.20;10.75;;;;;;;8.83;72.07;103011.41;5093774;28;20081;-53
2023/02/13 20:35:35;;;;;;;20.20;10.32;;;;;;;8.80;72.24;103014.22;5083412;28;20051;-54
2023/02/13 20:38:02;;;;;;;21.25;10.15;;;;;;;8.82;72.19;103013.19;5094220;28;20044;-53
2023/02/13 20:40:29;;;;;;;21.75;10.10;;;;;;;8.82;72.35;103010.56;5093880;28;20048;-54
2023/02/13 20:42:57;;;;;;;30.83;10.32;;;;;;;8.82;72.36;103009.69;5070416;28;20055;-54
2023/02/13 20:45:24;;;;;;;22.25;9.77;;;;;;;8.76;73.09;103017.97;5093953;28;20067;-53
2023/02/13 20:47:50;;;;;;;21.83;9.52;;;;;;;8.57;73.37;103010.22;5093874;28;20075;-53
2023/02/13 20:50:18;;;;;;;24.15;10.93;;;;;;;8.64;73.50;103008.91;5093647;28;20055;-53
2023/02/13 20:52:44;;;;;;;25.08;10.55;;;;;;;8.56;73.66;103006.72;5075791;28;20123;-53
2023/02/13 20:55:11;;;;;;;24.98;11.00;;;;;;;8.50;73.82;103001.78;5093600;28;20048;-53
2023/02/13 20:57:38;;;;;;;26.02;10.48;;;;;;;8.52;73.51;103006.97;5094052;28;20102;-53
2023/02/13 21:00:07;;;;;;;24.05;9.93;;;;;;;8.52;73.35;103006.97;5092691;28;20516;-53
2023/02/13 21:02:35;;;;;;;22.88;10.25;;;;;;;8.53;73.89;103004.25;5093513;28;20048;-53
2023/02/13 21:05:02;;;;;;;22.75;10.27;;;;;;;8.40;73.85;103001.41;5093706;28;20048;-54
2023/02/13 21:07:29;;;;;;;22.05;10.05;;;;;;;8.36;73.86;103006.94;5093188;28;20628;-53
2023/02/13 21:09:57;;;;;;;19.33;9.68;;;;;;;8.36;74.04;103006.94;5109036;28;20055;-53
2023/02/13 21:12:24;;;;;;;22.40;9.90;;;;;;;8.36;74.32;103010.44;5093620;28;20068;-54
2023/02/13 21:14:51;;;;;;;21.13;10.52;;;;;;;8.30;74.02;103008.13;5075960;28;20048;-54
2023/02/13 21:17:17;;;;;;;22.08;9.23;;;;;;;8.33;73.94;103007.97;5092190;28;20044;-53
2023/02/13 21:19:44;;;;;;;20.13;9.52;;;;;;;8.29;73.56;103014.34;5093448;28;20052;-54
2023/02/13 21:22:11;;;;;;;19.52;8.95;;;;;;;8.20;73.82;103007.75;5083881;28;20066;-55
2023/02/13 21:24:40;;;;;;;24.30;9.52;;;;;;;8.27;74.29;103000.34;5077042;28;20413;-54
2023/02/13 21:27:09;;;;;;;19.77;9.05;;;;;;;8.29;73.69;103005.56;5082894;28;20500;-53
2023/02/13 21:29:36;;;;;;;19.38;9.88;;;;;;;8.24;73.72;103005.81;5092329;28;20117;-53
2023/02/13 21:32:04;;;;;;;21.70;9.88;;;;;;;8.22;74.11;103002.38;5093167;28;20048;-53
2023/02/13 21:34:31;;;;;;;23.20;8.75;;;;;;;8.30;73.49;103008.13;5092074;28;20139;-54
2023/02/13 21:36:58;;;;;;;25.70;9.23;;;;;;;8.37;73.34;103008.66;5076846;28;20051;-53
2023/02/13 21:39:24;;;;;;;23.10;10.18;;;;;;;8.27;73.43;103008.28;5093527;28;20071;-53
2023/02/13 21:41:51;;;;;;;18.55;8.80;;;;;;;8.13;73.74;103010.81;5093030;28;20489;-56
2023/02/13 21:44:19;;;;;;;25.10;10.00;;;;;;;8.16;74.06;103008.03;5093288;28;20102;-54
2023/02/13 21:46:46;;;;;;;26.80;10.98;;;;;;;8.21;73.24;103006.00;5093103;28;20040;-53
2023/02/13 21:49:16;;;;;;;23.15;10.65;;;;;;;8.15;73.70;103001.88;5091620;28;20063;-54
2023/02/13 21:51:44;;;;;;;20.40;9.55;;;;;;;8.24;73.43;103006.69;5093373;28;20051;-54
2023/02/13 21:54:11;;;;;;;23.42;9.60;;;;;;;8.17;73.89;103000.00;5093292;28;20094;-54
2023/02/13 21:56:40;;;;;;;21.75;9.32;;;;;;;8.13;72.88;102997.59;5093329;28;20074;-58
2023/02/13 21:59:09;;;;;;;21.05;9.80;;;;;;;8.24;73.43;102993.47;5087700;28;20055;-55
2023/02/13 22:01:45;;;;;;;24.05;9.32;;;;;;;8.12;73.86;102993.28;5084901;28;20058;-53
2023/02/13 22:04:12;;;;;;;19.83;9.23;;;;;;;8.02;73.86;102995.53;5092613;28;20040;-54
2023/02/13 22:06:39;;;;;;;25.35;9.95;;;;;;;7.82;74.75;102997.47;5092940;28;20043;-52
2023/02/13 22:09:11;;;;;;;23.38;10.18;;;;;;;7.88;74.86;103001.56;5092670;28;20052;-54
2023/02/13 22:11:38;;;;;;;25.35;10.57;;;;;;;7.91;74.91;102993.47;5091650;28;20122;-54
2023/02/13 22:14:09;;;;;;;20.10;9.60;;;;;;;7.90;74.92;102994.41;5095638;28;20044;-54
2023/02/13 22:16:37;;;;;;;20.48;9.00;;;;;;;7.85;74.71;102991.16;5096800;28;20048;-54
2023/02/13 22:19:05;;;;;;;22.20;10.07;;;;;;;7.85;74.72;102992.00;5096396;28;20497;-53
2023/02/13 22:21:33;;;;;;;20.55;8.95;;;;;;;7.76;74.84;102996.94;5096674;28;20048;-53
2023/02/13 22:24:00;;;;;;;21.23;9.02;;;;;;;7.84;74.63;102995.59;5096446;28;20062;-54
2023/02/13 22:26:29;;;;;;;19.90;9.88;;;;;;;7.80;74.95;102999.31;5096360;28;20546;-53
2023/02/13 22:29:00;;;;;;;22.80;9.77;;;;;;;7.82;75.09;102996.59;5096347;28;20048;-53
2023/02/13 22:31:26;;;;;;;17.65;9.48;;;;;;;7.77;75.26;102996.84;5096510;28;20061;-53
2023/02/13 22:33:54;;;;;;;19.63;9.35;;;;;;;7.72;75.00;103005.97;5096397;28;20044;-53
2023/02/13 22:36:29;;;;;;;20.38;9.50;;;;;;;7.74;75.19;103007.56;5096417;28;20044;-53
2023/02/13 22:38:57;;;;;;;20.65;9.38;;;;;;;7.69;75.11;103001.66;5096184;28;20068;-53
2023/02/13 22:41:25;;;;;;;23.83;9.05;;;;;;;7.66;75.29;102997.41;5096309;28;20090;-54